πŸ“Š DonnΓ©es MΓ©tΓ©o - Bordeaux

Total mesures

14,325

TempΓ©rature moyenne

18.8Β°C

Temp. Min/Max

2.9Β° / 42.4Β°

HumiditΓ© moyenne

64.9%

Pression moyenne

1014.7 hPa
enregistrements
ID Date/Heure Temp (Β°C) HumiditΓ© (%) Pression (hPa) Tendance LuminositΓ© (lux) Situation
14025 30/08/2026 17:30 22.7 64.0 1,015.3 β†’ Stable 20,460 frais-stable
14024 30/08/2026 17:15 22.8 64.0 1,015.3 β†’ Stable 25,368 frais-stable
14023 30/08/2026 17:00 22.9 64.0 1,015.3 β†’ Stable 31,476 frais-stable
14022 30/08/2026 16:45 22.9 65.0 1,015.4 β†’ Stable 36,756 frais-stable
14021 30/08/2026 16:30 23.3 62.0 1,015.4 β†’ Stable 35,376 conditions-neutrales-ou-non-definies
14020 30/08/2026 16:15 23.2 64.0 1,015.4 β†’ Stable 38,976 conditions-neutrales-ou-non-definies
14019 30/08/2026 15:45 22.6 73.0 1,015.4 β†’ Stable 40,368 pluvieux-gris (approx.)
14018 30/08/2026 15:15 23.3 62.0 1,015.4 β†’ Stable 34,440 conditions-neutrales-ou-non-definies
14017 30/08/2026 14:45 23.7 65.0 1,015.2 β†’ Stable 52,968 conditions-neutrales-ou-non-definies
14016 30/08/2026 14:30 23.1 68.0 1,015.2 β†’ Stable 34,908 conditions-neutrales-ou-non-definies
14015 30/08/2026 14:15 22.9 69.0 1,015.2 β†’ Stable 35,652 frais-stable
14014 30/08/2026 13:45 22.7 73.0 1,015.2 β†’ Stable 82,032 conditions-neutrales-ou-non-definies
14013 30/08/2026 13:30 23.5 64.0 1,014.9 β†’ Stable 60,744 conditions-neutrales-ou-non-definies
14012 30/08/2026 13:15 23.3 74.0 1,014.9 β†’ Stable 41,760 pluvieux-gris (approx.)
14011 30/08/2026 13:00 22.9 79.0 1,014.9 β†’ Stable 49,908 pluvieux-gris (approx.)
14010 30/08/2026 12:45 22.9 79.0 1,014.9 β†’ Stable 51,384 pluvieux-gris (approx.)
14009 30/08/2026 12:15 24.0 71.0 1,014.9 β†’ Stable 52,968 pluvieux-gris (approx.)
14008 30/08/2026 12:00 24.3 68.0 1,014.9 β†’ Stable 63,708 confortablement-chaud (approx.)
14007 30/08/2026 11:45 23.7 70.0 1,015.2 β†’ Stable 67,032 pluvieux-gris (approx.)
14006 30/08/2026 11:30 24.6 65.0 1,015.2 β†’ Stable 67,500 confortablement-chaud (approx.)
14005 30/08/2026 11:15 24.2 67.0 1,015.2 β†’ Stable 71,112 confortablement-chaud
14004 30/08/2026 10:45 23.3 76.0 1,015.7 β†’ Stable 73,800 conditions-neutrales-ou-non-definies
14003 30/08/2026 10:30 23.7 69.0 1,015.7 β†’ Stable 16,392 conditions-neutrales-ou-non-definies
14002 30/08/2026 10:15 23.3 71.0 1,015.7 β†’ Stable 14,724 pluvieux-gris (approx.)
14001 30/08/2026 10:00 22.9 75.0 1,015.7 β†’ Stable 17,592 pluvieux-gris (approx.)
14000 30/08/2026 09:45 23.2 74.0 1,015.8 β†’ Stable 17,124 pluvieux-gris (approx.)
13999 30/08/2026 09:30 23.1 74.0 1,015.8 β†’ Stable 15,744 pluvieux-gris (approx.)
13998 30/08/2026 09:15 23.1 74.0 1,015.8 β†’ Stable 14,820 pluvieux-gris (approx.)
13997 30/08/2026 08:45 22.9 76.0 1,015.7 β†’ Stable 26,112 pluvieux-gris (approx.)
13996 30/08/2026 08:15 22.8 77.0 1,015.7 β†’ Stable 31,020 pluvieux-gris (approx.)
13995 30/08/2026 07:45 22.0 82.0 1,015.7 β†’ Stable 34,164 pluvieux-gris (approx.)
13994 30/08/2026 07:15 21.9 80.0 1,015.7 β†’ Stable 14,628 pluvieux-gris (approx.)
13993 30/08/2026 06:45 21.1 84.0 1,015.7 β†’ Stable 14,532 pluvieux-gris (approx.)
13992 30/08/2026 06:30 20.5 87.0 1,015.7 β†’ Stable 11,580 pluvieux-gris (approx.)
13991 30/08/2026 06:15 20.3 88.0 1,015.7 β†’ Stable 7,776 pluvieux-gris (approx.)
13990 30/08/2026 05:45 20.1 89.0 1,015.5 β†’ Stable 828 pluvieux-gris (approx.)
13989 30/08/2026 05:30 20.1 90.0 1,015.5 β†’ Stable 0 pluvieux-gris (approx.)
13988 30/08/2026 05:15 20.2 90.0 1,015.5 β†’ Stable 0 pluvieux-gris (approx.)
13987 30/08/2026 04:45 20.4 89.0 1,015.7 β†’ Stable 0 pluvieux-gris (approx.)
13986 30/08/2026 04:30 20.4 90.0 1,015.7 β†’ Stable 0 pluvieux-gris (approx.)
13985 30/08/2026 04:15 20.5 89.0 1,015.7 β†’ Stable 0 pluvieux-gris (approx.)
13984 30/08/2026 03:45 20.7 87.0 1,015.8 β†’ Stable 0 pluvieux-gris (approx.)
13983 30/08/2026 03:30 20.5 87.0 1,015.8 β†’ Stable 0 pluvieux-gris (approx.)
13982 30/08/2026 03:15 20.6 87.0 1,015.8 β†’ Stable 0 pluvieux-gris (approx.)
13981 30/08/2026 03:00 20.4 88.0 1,015.8 β†’ Stable 0 pluvieux-gris (approx.)
13980 30/08/2026 02:45 20.3 88.0 1,015.8 β†’ Stable 0 pluvieux-gris (approx.)
13979 30/08/2026 02:15 20.3 87.0 1,015.8 β†’ Stable 0 pluvieux-gris (approx.)
13978 30/08/2026 02:00 20.3 86.0 1,015.8 β†’ Stable 0 pluvieux-gris (approx.)
13977 30/08/2026 01:45 20.3 86.0 1,015.9 β†’ Stable 0 pluvieux-gris (approx.)
13976 30/08/2026 01:15 21.1 85.0 1,016.0 β†’ Stable 0 pluvieux-gris (approx.)
13975 30/08/2026 01:00 21.1 83.0 1,016.0 β†’ Stable 0 pluvieux-gris (approx.)
13974 30/08/2026 00:45 21.0 83.0 1,016.2 β†’ Stable 0 pluvieux-gris (approx.)
13973 30/08/2026 00:30 21.4 81.0 1,016.2 β†’ Stable 0 pluvieux-gris (approx.)
13972 30/08/2026 00:15 21.4 80.0 1,016.2 β†’ Stable 0 pluvieux-gris (approx.)
13971 29/08/2026 23:45 21.4 79.0 1,016.3 β†’ Stable 0 pluvieux-gris (approx.)
13970 29/08/2026 23:15 21.4 78.0 1,016.5 β†’ Stable 0 pluvieux-gris (approx.)
13969 29/08/2026 23:00 21.3 78.0 1,016.5 β†’ Stable 0 pluvieux-gris (approx.)
13968 29/08/2026 22:45 21.2 79.0 1,016.3 β†’ Stable 0 pluvieux-gris (approx.)
13967 29/08/2026 22:30 21.3 80.0 1,016.3 β†’ Stable 0 pluvieux-gris (approx.)
13966 29/08/2026 22:15 21.2 76.0 1,016.3 β†’ Stable 0 pluvieux-gris (approx.)
13965 29/08/2026 21:45 21.1 73.0 1,016.1 β†’ Stable 0 pluvieux-gris (approx.)
13964 29/08/2026 21:15 21.7 71.0 1,016.1 β†’ Stable 0 pluvieux-gris (approx.)
13963 29/08/2026 20:45 22.0 68.0 1,015.9 β†’ Stable 0 frais-stable
13962 29/08/2026 20:30 22.1 66.0 1,015.9 β†’ Stable 0 frais-stable
13961 29/08/2026 20:15 22.3 64.0 1,015.9 β†’ Stable 0 frais-stable
13960 29/08/2026 20:00 22.6 62.0 1,015.9 β†’ Stable 0 frais-stable
13959 29/08/2026 19:45 23.0 61.0 1,015.2 β†’ Stable 0 frais-stable
13958 29/08/2026 19:15 23.1 63.0 1,015.2 β†’ Stable 0 conditions-neutrales-ou-non-definies
13957 29/08/2026 18:45 23.7 59.0 1,014.8 β†’ Stable 96 conditions-neutrales-ou-non-definies
13956 29/08/2026 18:30 24.7 53.0 1,014.8 β†’ Stable 2,592 confortablement-chaud (approx.)
13955 29/08/2026 18:15 25.1 52.0 1,014.8 β†’ Stable 6,852 confortablement-chaud (approx.)
13954 29/08/2026 18:00 25.6 51.0 1,014.8 β†’ Stable 11,016 confortablement-chaud (approx.)
13953 29/08/2026 17:45 25.9 49.0 1,014.7 β†’ Stable 15,744 confortablement-chaud (approx.)
13952 29/08/2026 17:30 26.0 50.0 1,014.7 β†’ Stable 20,376 confortablement-chaud (approx.)
13951 29/08/2026 17:15 26.3 48.0 1,014.7 β†’ Stable 25,092 confortablement-chaud (approx.)
13950 29/08/2026 16:45 27.0 45.0 1,014.7 β†’ Stable 37,404 confortablement-chaud (approx.)
13949 29/08/2026 16:30 27.3 42.0 1,014.7 β†’ Stable 42,504 confortablement-chaud (approx.)
13948 29/08/2026 16:15 27.6 39.0 1,014.7 β†’ Stable 47,592 conditions-neutrales-ou-non-definies
13947 29/08/2026 15:45 28.1 33.0 1,014.5 β†’ Stable 58,236 conditions-neutrales-ou-non-definies
13946 29/08/2026 15:15 28.6 33.0 1,014.5 β†’ Stable 41,388 conditions-neutrales-ou-non-definies
13945 29/08/2026 14:45 28.6 33.0 1,014.7 β†’ Stable 71,664 confortablement-chaud (approx.)
13944 29/08/2026 14:30 28.8 39.0 1,014.7 β†’ Stable 72,780 confortablement-chaud (approx.)
13943 29/08/2026 14:15 28.6 39.0 1,014.7 β†’ Stable 75,468 confortablement-chaud (approx.)
13942 29/08/2026 13:45 28.7 39.0 1,014.7 β†’ Stable 62,868 conditions-neutrales-ou-non-definies
13941 29/08/2026 13:30 28.3 40.0 1,014.7 β†’ Stable 83,244 confortablement-chaud
13940 29/08/2026 13:15 28.2 39.0 1,015.0 β†’ Stable 85,644 confortablement-chaud (approx.)
13939 29/08/2026 12:45 28.2 39.0 1,015.3 β†’ Stable 87,588 confortablement-chaud (approx.)
13938 29/08/2026 12:15 27.7 41.0 1,015.3 β†’ Stable 73,236 confortablement-chaud
13937 29/08/2026 12:00 27.4 43.0 1,015.3 β†’ Stable 72,504 confortablement-chaud
13936 29/08/2026 11:45 27.0 45.0 1,015.7 β†’ Stable 71,208 confortablement-chaud
13935 29/08/2026 11:15 26.9 46.0 1,016.1 β†’ Stable 85,188 confortablement-chaud
13934 29/08/2026 10:45 26.3 48.0 1,016.5 β†’ Stable 71,484 confortablement-chaud
13933 29/08/2026 10:30 26.0 49.0 1,016.5 β†’ Stable 76,668 confortablement-chaud
13932 29/08/2026 10:15 25.7 51.0 1,016.5 β†’ Stable 74,352 confortablement-chaud
13931 29/08/2026 09:45 24.8 57.0 1,016.5 β†’ Stable 71,016 confortablement-chaud
13930 29/08/2026 09:15 24.2 58.0 1,016.5 β†’ Stable 66,948 confortablement-chaud (approx.)
13929 29/08/2026 08:45 23.5 61.0 1,016.1 β†’ Stable 57,588 conditions-neutrales-ou-non-definies
13928 29/08/2026 08:15 22.8 66.0 1,016.1 β†’ Stable 50,280 frais-stable
13927 29/08/2026 08:00 22.4 67.0 1,016.1 β†’ Stable 43,800 frais-stable
13926 29/08/2026 07:45 22.0 69.0 1,016.0 β†’ Stable 38,976 frais-stable